createdAt,value
2022-10-19T00:00:48.909Z,13.85
2022-10-19T00:03:19.413Z,12.23
2022-10-19T00:05:48.887Z,12.20
2022-10-19T00:08:15.421Z,10.85
2022-10-19T00:10:41.957Z,9.13
2022-10-19T00:13:08.592Z,13.50
2022-10-19T00:15:39.929Z,11.55
2022-10-19T00:18:08.034Z,9.68
2022-10-19T00:20:37.038Z,12.32
2022-10-19T00:23:04.066Z,11.50
2022-10-19T00:25:30.714Z,10.95
2022-10-19T00:27:57.240Z,12.05
2022-10-19T00:30:23.934Z,10.88
2022-10-19T00:32:50.399Z,8.70
2022-10-19T00:35:17.108Z,9.00
2022-10-19T00:37:43.663Z,13.13
2022-10-19T00:40:10.482Z,8.60
2022-10-19T00:42:37.100Z,10.30
2022-10-19T00:45:11.978Z,8.52
2022-10-19T00:47:39.034Z,10.00
2022-10-19T00:50:06.077Z,10.13
2022-10-19T00:52:33.016Z,10.10
2022-10-19T00:54:59.866Z,17.90
2022-10-19T00:57:29.488Z,8.13
2022-10-19T00:59:57.571Z,9.10
2022-10-19T01:02:24.144Z,8.60
2022-10-19T01:04:52.094Z,11.25
2022-10-19T01:07:19.874Z,8.07
2022-10-19T01:09:46.476Z,10.65
2022-10-19T01:12:34.019Z,7.63
2022-10-19T01:15:18.830Z,9.43
2022-10-19T01:18:27.177Z,9.82
2022-10-19T01:21:11.798Z,6.72
2022-10-19T01:24:06.326Z,7.45
2022-10-19T01:26:35.912Z,7.10
2022-10-19T01:29:17.746Z,9.23
2022-10-19T01:31:50.966Z,6.53
2022-10-19T01:34:31.658Z,6.30
2022-10-19T01:37:08.959Z,10.63
2022-10-19T01:39:50.079Z,11.13
2022-10-19T01:42:28.402Z,9.82
2022-10-19T01:45:07.672Z,7.18
2022-10-19T01:47:41.291Z,8.80
2022-10-19T01:50:11.054Z,9.23
2022-10-19T01:52:40.827Z,6.90
2022-10-19T01:55:10.434Z,9.77
2022-10-19T01:57:41.710Z,10.07
2022-10-19T02:00:12.306Z,8.20
2022-10-19T02:02:43.225Z,12.50
2022-10-19T02:05:11.180Z,12.60
2022-10-19T02:07:40.192Z,10.73
2022-10-19T02:10:07.723Z,8.20
2022-10-19T02:12:36.787Z,8.55
2022-10-19T02:15:11.554Z,9.52
2022-10-19T02:17:46.329Z,5.53
2022-10-19T02:20:14.805Z,10.80
2022-10-19T02:22:41.745Z,7.10
2022-10-19T02:25:09.604Z,8.80
2022-10-19T02:27:38.544Z,9.13
2022-10-19T02:30:05.894Z,8.23
2022-10-19T02:32:32.772Z,11.52
2022-10-19T02:34:59.670Z,10.07
2022-10-19T02:37:26.413Z,6.55
2022-10-19T02:39:53.183Z,6.32
2022-10-19T02:42:40.002Z,6.57
2022-10-19T02:45:11.343Z,6.45
2022-10-19T02:48:10.173Z,11.07
2022-10-19T02:50:37.265Z,6.45
2022-10-19T02:53:03.825Z,6.03
2022-10-19T02:55:31.108Z,9.43
2022-10-19T02:57:57.879Z,5.97
2022-10-19T03:00:24.364Z,9.52
2022-10-19T03:02:50.961Z,8.07
2022-10-19T03:05:17.446Z,8.68
2022-10-19T03:07:44.064Z,7.30
2022-10-19T03:10:10.647Z,8.63
2022-10-19T03:12:37.137Z,9.80
2022-10-19T03:15:04.207Z,7.70
2022-10-19T03:17:30.807Z,7.25
2022-10-19T03:19:57.494Z,9.23
2022-10-19T03:22:23.969Z,6.47
2022-10-19T03:24:50.666Z,7.45
2022-10-19T03:27:17.173Z,8.48
2022-10-19T03:29:43.646Z,7.10
2022-10-19T03:32:10.352Z,4.83
2022-10-19T03:34:36.927Z,7.47
2022-10-19T03:37:03.499Z,6.75
2022-10-19T03:39:30.006Z,5.00
2022-10-19T03:41:56.498Z,8.13
2022-10-19T03:44:23.062Z,7.03
2022-10-19T03:46:49.595Z,6.20
2022-10-19T03:49:16.092Z,6.15
2022-10-19T03:51:42.779Z,8.85
2022-10-19T03:54:14.758Z,4.78
2022-10-19T03:56:42.158Z,5.10
2022-10-19T03:59:12.421Z,5.15
2022-10-19T04:01:42.013Z,4.85
2022-10-19T04:04:15.143Z,8.85
2022-10-19T04:06:43.455Z,7.00
2022-10-19T04:09:12.987Z,5.40
2022-10-19T04:11:39.926Z,5.55
2022-10-19T04:14:06.877Z,4.65
2022-10-19T04:16:33.777Z,5.03
2022-10-19T04:19:00.657Z,4.57
2022-10-19T04:21:30.497Z,3.67
2022-10-19T04:24:03.051Z,5.07
2022-10-19T04:26:29.946Z,5.53
2022-10-19T04:29:00.868Z,7.57
2022-10-19T04:31:28.318Z,6.55
2022-10-19T04:33:55.202Z,4.97
2022-10-19T04:36:22.111Z,3.50
2022-10-19T04:38:48.672Z,5.72
2022-10-19T04:41:17.821Z,4.80
2022-10-19T04:43:47.969Z,4.78
2022-10-19T04:46:19.323Z,7.43
2022-10-19T04:48:47.802Z,8.07
2022-10-19T04:51:15.075Z,4.93
2022-10-19T04:53:42.694Z,4.28
2022-10-19T04:56:12.910Z,7.28
2022-10-19T04:58:39.439Z,5.13
2022-10-19T05:01:32.111Z,7.50
2022-10-19T05:04:01.433Z,7.47
2022-10-19T05:06:29.477Z,6.32
2022-10-19T05:08:56.049Z,3.90
2022-10-19T05:11:22.641Z,4.97
2022-10-19T05:13:49.512Z,5.30
2022-10-19T05:16:19.029Z,7.95
2022-10-19T05:18:50.087Z,5.22
2022-10-19T05:21:18.145Z,8.05
2022-10-19T05:23:45.053Z,6.67
2022-10-19T05:26:20.323Z,5.30
2022-10-19T05:28:56.246Z,5.63
2022-10-19T05:31:25.646Z,9.68
2022-10-19T05:33:52.277Z,5.13
2022-10-19T05:36:21.687Z,6.37
2022-10-19T05:38:50.124Z,4.80
2022-10-19T05:41:17.041Z,7.00
2022-10-19T05:43:44.130Z,8.98
2022-10-19T05:46:13.827Z,6.20
2022-10-19T05:48:40.518Z,8.53
2022-10-19T05:51:10.394Z,10.32
2022-10-19T05:56:12.833Z,7.45
2022-10-19T05:58:39.525Z,6.35
2022-10-19T06:01:06.493Z,7.00
2022-10-19T06:03:32.962Z,4.82
2022-10-19T06:06:03.573Z,5.13
2022-10-19T06:08:30.451Z,6.15
2022-10-19T06:11:17.162Z,5.47
2022-10-19T06:13:45.637Z,7.43
2022-10-19T06:16:14.579Z,9.10
2022-10-19T06:18:42.852Z,8.07
2022-10-19T06:21:15.524Z,6.05
2022-10-19T06:26:14.864Z,6.27
2022-10-19T06:28:43.077Z,8.02
2022-10-19T06:31:10.313Z,9.27
2022-10-19T06:33:37.324Z,7.75
2022-10-19T06:36:08.997Z,8.77
2022-10-19T06:38:35.451Z,5.97
2022-10-19T06:41:02.069Z,8.07
2022-10-19T06:43:28.728Z,6.93
2022-10-19T06:45:55.299Z,7.65
2022-10-19T06:48:21.926Z,6.85
2022-10-19T06:50:56.605Z,5.90
2022-10-19T06:53:23.166Z,9.00
2022-10-19T06:55:49.748Z,6.95
2022-10-19T06:58:16.282Z,19.20
2022-10-19T07:00:42.859Z,11.55
2022-10-19T07:03:09.458Z,6.73
2022-10-19T07:05:35.957Z,8.00
2022-10-19T07:08:02.591Z,8.40
2022-10-19T07:10:29.117Z,7.57
2022-10-19T07:12:56.478Z,8.25
2022-10-19T07:15:23.039Z,7.47
2022-10-19T07:17:49.502Z,7.38
2022-10-19T07:20:16.077Z,6.07
2022-10-19T07:22:42.519Z,7.78
2022-10-19T07:25:09.136Z,8.23
2022-10-19T07:27:37.812Z,7.10
2022-10-19T07:30:05.449Z,5.05
2022-10-19T07:32:31.847Z,8.30
2022-10-19T07:34:58.278Z,6.32
2022-10-19T07:37:24.822Z,6.68
2022-10-19T07:39:51.525Z,8.30
2022-10-19T07:42:18.212Z,6.05
2022-10-19T07:44:44.748Z,5.10
2022-10-19T07:47:11.378Z,6.35
2022-10-19T07:49:38.289Z,11.35
2022-10-19T07:52:05.373Z,8.93
2022-10-19T07:54:31.850Z,7.13
2022-10-19T07:56:58.382Z,8.98
2022-10-19T07:59:24.918Z,7.88
2022-10-19T08:01:53.053Z,4.95
2022-10-19T08:07:06.058Z,6.30
2022-10-19T08:09:53.172Z,7.53
2022-10-19T08:12:19.223Z,6.72
2022-10-19T08:14:45.785Z,5.78
2022-10-19T08:17:16.484Z,5.43
2022-10-19T08:19:44.292Z,6.93
2022-10-19T08:22:11.154Z,7.85
2022-10-19T08:24:37.929Z,4.30
2022-10-19T08:27:04.890Z,5.95
2022-10-19T08:29:31.881Z,6.80
2022-10-19T08:31:59.066Z,7.80
2022-10-19T08:34:25.724Z,5.72
2022-10-19T08:36:52.312Z,7.60
2022-10-19T08:39:18.981Z,4.90
2022-10-19T08:41:51.191Z,6.00
2022-10-19T08:44:36.651Z,5.78
2022-10-19T08:47:39.841Z,6.10
2022-10-19T08:50:30.804Z,10.65
2022-10-19T08:53:07.613Z,6.35
2022-10-19T08:55:43.112Z,6.17
2022-10-19T08:58:36.488Z,5.60
2022-10-19T09:01:13.565Z,7.20
2022-10-19T09:03:55.493Z,6.13
2022-10-19T09:06:31.986Z,6.13
2022-10-19T09:08:59.359Z,6.13
2022-10-19T09:11:37.202Z,7.45
2022-10-19T09:14:13.037Z,7.13
2022-10-19T09:16:39.514Z,4.65
2022-10-19T09:19:25.602Z,7.88
2022-10-19T09:22:04.243Z,6.87
2022-10-19T09:24:44.985Z,4.32
2022-10-19T09:27:23.203Z,5.47
2022-10-19T09:29:57.390Z,7.95
2022-10-19T09:32:32.188Z,9.05
2022-10-19T09:35:02.683Z,5.23
2022-10-19T09:40:01.624Z,5.63
2022-10-19T09:42:33.026Z,4.88
2022-10-19T09:45:02.813Z,6.28
2022-10-19T09:47:37.066Z,4.63
2022-10-19T09:50:23.975Z,5.03
2022-10-19T09:53:04.901Z,7.97
2022-10-19T09:55:43.970Z,7.05
2022-10-19T09:58:13.255Z,5.38
2022-10-19T10:00:47.053Z,3.80
2022-10-19T10:03:32.387Z,5.53
2022-10-19T10:06:04.055Z,7.45
2022-10-19T10:08:34.292Z,8.13
2022-10-19T10:11:15.617Z,4.28
2022-10-19T10:13:49.727Z,4.80
2022-10-19T10:16:18.593Z,4.57
2022-10-19T10:18:55.632Z,6.63
2022-10-19T10:21:25.471Z,3.25
2022-10-19T10:24:12.033Z,4.90
2022-10-19T10:26:41.180Z,4.73
2022-10-19T10:29:26.022Z,6.93
2022-10-19T10:31:55.958Z,3.28
2022-10-19T10:34:46.366Z,4.10
2022-10-19T10:37:21.591Z,3.30
2022-10-19T10:39:52.589Z,6.37
2022-10-19T10:42:25.719Z,5.18
2022-10-19T10:44:54.110Z,5.30
2022-10-19T10:47:21.195Z,3.60
2022-10-19T10:50:05.844Z,3.67
2022-10-19T10:52:33.268Z,3.87
2022-10-19T10:55:16.887Z,4.05
2022-10-19T10:57:53.590Z,3.08
2022-10-19T11:00:23.966Z,2.63
2022-10-19T11:03:05.124Z,4.55
2022-10-19T11:05:36.041Z,4.40
2022-10-19T11:08:50.042Z,3.38
2022-10-19T11:11:47.591Z,4.40
2022-10-19T11:14:36.756Z,4.88
2022-10-19T11:17:15.626Z,4.40
2022-10-19T11:19:45.084Z,3.37
2022-10-19T11:22:26.393Z,4.20
2022-10-19T11:25:02.068Z,5.55
2022-10-19T11:27:54.236Z,4.30
2022-10-19T11:30:23.313Z,5.93
2022-10-19T11:33:06.298Z,3.23
2022-10-19T11:35:41.691Z,4.85
2022-10-19T11:38:30.052Z,3.22
2022-10-19T11:41:17.886Z,6.65
2022-10-19T11:44:01.011Z,4.05
2022-10-19T11:46:32.827Z,7.57
2022-10-19T11:49:25.112Z,3.90
2022-10-19T11:51:58.228Z,4.07
2022-10-19T11:54:55.897Z,4.85
2022-10-19T11:57:52.233Z,6.25
2022-10-19T12:00:38.036Z,4.33
2022-10-19T12:03:26.451Z,4.43
2022-10-19T12:06:28.447Z,4.60
2022-10-19T12:09:28.133Z,4.45
2022-10-19T12:12:22.155Z,5.25
2022-10-19T12:14:52.916Z,3.40
2022-10-19T12:17:26.778Z,7.30
2022-10-19T12:20:00.049Z,4.20
2022-10-19T12:22:29.421Z,4.40
2022-10-19T12:25:00.271Z,4.15
2022-10-19T12:27:38.977Z,4.63
2022-10-19T12:30:19.908Z,7.65
2022-10-19T12:32:55.706Z,3.78
2022-10-19T12:35:46.209Z,8.13
2022-10-19T12:38:50.978Z,7.45
2022-10-19T12:41:33.968Z,9.53
2022-10-19T12:44:20.554Z,16.70
2022-10-19T12:46:58.773Z,11.35
2022-10-19T12:49:29.802Z,10.00
2022-10-19T12:52:01.058Z,6.60
2022-10-19T12:54:30.987Z,5.03
2022-10-19T12:57:00.319Z,7.38
2022-10-19T12:59:31.130Z,7.05
2022-10-19T13:01:59.226Z,7.45
2022-10-19T13:04:29.449Z,7.00
2022-10-19T13:07:02.568Z,5.80
2022-10-19T13:09:39.585Z,6.88
2022-10-19T13:12:22.021Z,3.13
2022-10-19T13:14:52.632Z,4.68
2022-10-19T13:17:34.697Z,4.07
2022-10-19T13:20:13.366Z,4.07
2022-10-19T13:23:05.995Z,6.25
2022-10-19T13:25:42.489Z,6.05
2022-10-19T13:28:09.306Z,5.38
2022-10-19T13:30:35.842Z,3.70
2022-10-19T13:33:31.442Z,4.57
2022-10-19T13:36:02.245Z,8.15
2022-10-19T13:38:29.901Z,6.65
2022-10-19T13:41:08.806Z,6.50
2022-10-19T13:43:44.079Z,4.22
2022-10-19T13:46:21.624Z,5.90
2022-10-19T13:49:09.644Z,4.47
2022-10-19T13:51:57.624Z,3.30
2022-10-19T13:54:27.070Z,6.43
2022-10-19T13:57:20.818Z,4.72
2022-10-19T14:00:12.112Z,3.47
2022-10-19T14:02:56.872Z,4.72
2022-10-19T14:05:54.123Z,3.95
2022-10-19T14:08:42.376Z,4.80
2022-10-19T14:11:21.592Z,3.70
2022-10-19T14:14:12.015Z,4.33
2022-10-19T14:16:55.974Z,4.93
2022-10-19T14:19:31.195Z,3.95
2022-10-19T14:22:01.189Z,4.28
2022-10-19T14:24:35.536Z,4.45
2022-10-19T14:27:04.552Z,4.30
2022-10-19T14:29:44.253Z,5.05
2022-10-19T14:32:11.847Z,4.50
2022-10-19T14:34:43.647Z,5.47
2022-10-19T14:37:19.395Z,4.40
2022-10-19T14:40:26.340Z,5.30
2022-10-19T14:42:55.202Z,4.50
2022-10-19T14:45:25.697Z,6.55
2022-10-19T14:47:57.141Z,5.10
2022-10-19T14:50:44.604Z,5.70
2022-10-19T14:53:32.428Z,3.97
2022-10-19T14:56:04.958Z,4.53
2022-10-19T14:58:39.214Z,6.07
2022-10-19T15:01:06.444Z,6.20
2022-10-19T15:03:33.503Z,3.78
2022-10-19T15:06:04.432Z,4.30
2022-10-19T15:08:47.580Z,4.50
2022-10-19T15:11:41.999Z,6.40
2022-10-19T15:14:14.052Z,4.03
2022-10-19T15:16:51.000Z,4.60
2022-10-19T15:19:29.843Z,4.30
2022-10-19T15:22:14.469Z,4.30
2022-10-19T15:24:55.931Z,4.70
2022-10-19T15:27:30.147Z,6.40
2022-10-19T15:29:56.614Z,4.47
2022-10-19T15:32:26.349Z,5.13
2022-10-19T15:34:52.935Z,6.10
2022-10-19T15:37:22.541Z,6.75
2022-10-19T15:39:51.003Z,6.45
2022-10-19T15:42:35.894Z,8.30
2022-10-19T15:45:04.053Z,6.97
2022-10-19T15:47:31.134Z,7.88
2022-10-19T15:50:02.145Z,7.20
2022-10-19T15:52:32.976Z,6.82
2022-10-19T15:55:01.059Z,13.57
2022-10-19T15:57:34.283Z,9.83
2022-10-19T16:00:12.148Z,10.43
2022-10-19T16:02:39.171Z,9.90
2022-10-19T16:07:40.210Z,8.57
2022-10-19T16:10:08.106Z,8.63
2022-10-19T16:12:34.553Z,10.23
2022-10-19T16:15:01.126Z,10.73
2022-10-19T16:17:27.722Z,11.75
2022-10-19T16:19:54.270Z,8.88
2022-10-19T16:22:20.795Z,11.30
2022-10-19T16:24:47.361Z,10.32
2022-10-19T16:27:16.981Z,10.05
2022-10-19T16:29:44.659Z,10.00
2022-10-19T16:32:11.594Z,10.82
2022-10-19T16:34:38.144Z,10.23
2022-10-19T16:37:06.894Z,10.35
2022-10-19T16:39:34.667Z,9.60
2022-10-19T16:42:01.305Z,14.88
2022-10-19T16:44:27.817Z,16.73
2022-10-19T16:46:56.582Z,20.43
2022-10-19T16:49:23.144Z,23.77
2022-10-19T16:51:51.979Z,20.95
2022-10-19T16:54:21.461Z,23.20
2022-10-19T16:56:48.442Z,25.52
2022-10-19T16:59:17.827Z,32.17
2022-10-19T17:01:45.823Z,54.38
2022-10-19T17:04:13.121Z,70.15
2022-10-19T17:06:40.610Z,82.18
2022-10-19T17:11:54.460Z,101.07
2022-10-19T17:14:20.928Z,95.25
2022-10-19T17:16:47.523Z,93.55
2022-10-19T17:19:14.132Z,96.68
2022-10-19T17:21:42.202Z,98.57
2022-10-19T17:24:20.203Z,98.10
2022-10-19T17:26:46.828Z,109.78
2022-10-19T17:29:13.889Z,100.78
2022-10-19T17:31:41.471Z,86.82
2022-10-19T17:34:08.456Z,73.93
2022-10-19T17:36:38.318Z,64.97
2022-10-19T17:39:12.371Z,45.55
2022-10-19T17:41:38.869Z,43.95
2022-10-19T17:44:06.008Z,41.55
2022-10-19T17:46:34.553Z,40.42
2022-10-19T17:49:01.438Z,37.83
2022-10-19T17:51:30.106Z,40.20
2022-10-19T17:53:59.553Z,26.95
2022-10-19T17:56:26.885Z,23.40
2022-10-19T17:58:54.168Z,21.17
2022-10-19T18:01:22.457Z,18.50
2022-10-19T18:03:50.140Z,18.33
2022-10-19T18:06:25.621Z,15.85
2022-10-19T18:08:53.989Z,19.85
2022-10-19T18:11:26.710Z,18.48
2022-10-19T18:13:56.219Z,19.80
2022-10-19T18:16:29.453Z,19.02
2022-10-19T18:18:58.097Z,16.65
2022-10-19T18:21:27.473Z,17.27
2022-10-19T18:23:56.885Z,16.30
2022-10-19T18:26:25.606Z,16.93
2022-10-19T18:28:53.490Z,16.58
2022-10-19T18:31:22.482Z,19.23
2022-10-19T18:34:01.463Z,17.35
2022-10-19T18:36:28.460Z,15.77
2022-10-19T18:38:57.838Z,15.27
2022-10-19T18:41:25.170Z,15.07
2022-10-19T18:43:54.046Z,16.52
2022-10-19T18:46:22.335Z,15.85
2022-10-19T18:48:49.807Z,15.55
2022-10-19T18:51:17.713Z,16.40
2022-10-19T18:53:45.226Z,16.73
2022-10-19T18:56:13.739Z,16.33
2022-10-19T18:58:40.268Z,18.00
2022-10-19T19:01:10.082Z,18.77
2022-10-19T19:03:38.570Z,18.83
2022-10-19T19:06:08.031Z,16.17
2022-10-19T19:08:34.899Z,17.13
2022-10-19T19:11:22.108Z,15.30
2022-10-19T19:13:54.051Z,16.08
2022-10-19T19:16:21.494Z,14.83
2022-10-19T19:18:48.145Z,16.00
2022-10-19T19:21:17.055Z,15.77
2022-10-19T19:23:43.748Z,16.80
2022-10-19T19:26:12.756Z,15.77
2022-10-19T19:28:41.913Z,16.20
2022-10-19T19:31:10.571Z,17.63
2022-10-19T19:33:38.247Z,16.73
2022-10-19T19:36:06.423Z,16.38
2022-10-19T19:38:33.500Z,15.55
2022-10-19T19:41:03.019Z,16.37
2022-10-19T19:43:31.386Z,14.85
2022-10-19T19:46:03.152Z,16.02
2022-10-19T19:48:32.745Z,13.73
2022-10-19T19:50:59.270Z,15.75
2022-10-19T19:53:25.826Z,16.13
2022-10-19T19:55:52.299Z,17.05
2022-10-19T19:58:19.046Z,16.27
2022-10-19T20:00:46.244Z,14.93
2022-10-19T20:03:13.577Z,14.68
2022-10-19T20:05:40.744Z,22.03
2022-10-19T20:08:09.041Z,27.63
2022-10-19T20:10:40.309Z,26.67
2022-10-19T20:13:06.917Z,23.75
2022-10-19T20:15:36.641Z,23.48
2022-10-19T20:18:03.142Z,17.07
2022-10-19T20:20:29.661Z,13.50
2022-10-19T20:22:56.214Z,13.38
2022-10-19T20:25:22.747Z,11.07
2022-10-19T20:27:49.431Z,12.98
2022-10-19T20:30:15.992Z,11.43
2022-10-19T20:32:42.397Z,9.77
2022-10-19T20:35:09.238Z,10.60
2022-10-19T20:37:35.809Z,12.70
2022-10-19T20:40:07.461Z,9.35
2022-10-19T20:42:35.667Z,9.70
2022-10-19T20:45:02.581Z,10.65
2022-10-19T20:47:29.830Z,11.93
2022-10-19T20:49:56.501Z,9.38
2022-10-19T20:52:23.144Z,9.15
2022-10-19T20:54:49.585Z,10.43
2022-10-19T20:57:16.114Z,12.07
2022-10-19T20:59:43.929Z,10.65
2022-10-19T21:02:11.315Z,10.55
2022-10-19T21:04:38.002Z,10.60
2022-10-19T21:07:04.953Z,14.17
2022-10-19T21:09:32.037Z,11.68
2022-10-19T21:11:58.906Z,12.55
2022-10-19T21:14:29.063Z,12.75
2022-10-19T21:16:57.480Z,13.30
2022-10-19T21:19:25.585Z,13.83
2022-10-19T21:22:02.441Z,16.38
2022-10-19T21:24:32.416Z,17.30
2022-10-19T21:27:04.784Z,20.35
2022-10-19T21:29:31.528Z,21.23
2022-10-19T21:31:58.846Z,18.97
2022-10-19T21:34:28.574Z,20.77
2022-10-19T21:36:55.860Z,17.83
2022-10-19T21:39:22.872Z,19.92
2022-10-19T21:41:49.870Z,18.02
2022-10-19T21:44:18.231Z,18.03
2022-10-19T21:46:47.159Z,18.08
2022-10-19T21:49:15.011Z,20.00
2022-10-19T21:51:50.981Z,18.80
2022-10-19T21:54:20.088Z,22.42
2022-10-19T21:56:47.580Z,21.23
2022-10-19T21:59:14.901Z,21.17
2022-10-19T22:01:41.857Z,27.08
2022-10-19T22:04:15.410Z,23.27
2022-10-19T22:06:43.212Z,24.40
2022-10-19T22:09:13.470Z,21.73
2022-10-19T22:11:40.001Z,20.90
2022-10-19T22:14:06.596Z,19.65
2022-10-19T22:16:38.418Z,15.70
2022-10-19T22:19:09.986Z,14.80
2022-10-19T22:21:40.084Z,15.67
2022-10-19T22:24:13.415Z,14.25
2022-10-19T22:26:42.672Z,11.50
2022-10-19T22:29:09.830Z,10.98
2022-10-19T22:31:40.096Z,11.32
2022-10-19T22:34:09.770Z,10.57
2022-10-19T22:36:36.715Z,10.10
2022-10-19T22:39:04.176Z,12.38
2022-10-19T22:41:30.678Z,11.38
2022-10-19T22:43:57.135Z,11.15
2022-10-19T22:46:23.672Z,10.03
2022-10-19T22:48:50.159Z,13.88
2022-10-19T22:51:16.682Z,10.18
2022-10-19T22:53:45.794Z,10.43
2022-10-19T22:56:12.552Z,12.10
2022-10-19T22:58:39.520Z,8.77
2022-10-19T23:01:12.361Z,8.70
2022-10-19T23:03:40.369Z,8.90
2022-10-19T23:06:09.599Z,8.05
2022-10-19T23:08:36.375Z,19.17
2022-10-19T23:11:02.949Z,8.57
2022-10-19T23:13:29.494Z,7.45
2022-10-19T23:15:56.267Z,9.30
2022-10-19T23:18:22.862Z,8.77
2022-10-19T23:21:00.240Z,8.43
2022-10-19T23:23:28.439Z,8.77
2022-10-19T23:26:05.522Z,7.93
2022-10-19T23:28:35.065Z,9.13
2022-10-19T23:31:12.502Z,8.13
2022-10-19T23:33:39.417Z,8.05
2022-10-19T23:36:15.299Z,9.53
2022-10-19T23:38:44.290Z,8.27
2022-10-19T23:41:12.486Z,8.00
2022-10-19T23:43:39.810Z,11.52
2022-10-19T23:46:06.653Z,9.25
2022-10-19T23:48:34.496Z,10.93
2022-10-19T23:51:03.999Z,8.23
2022-10-19T23:53:34.661Z,9.77
2022-10-19T23:56:12.372Z,9.02
2022-10-19T23:58:39.009Z,8.00
